createdAt,value
2022-10-05T00:02:26.158Z,2.97
2022-10-05T00:04:56.501Z,3.18
2022-10-05T00:07:24.579Z,3.00
2022-10-05T00:09:57.904Z,2.87
2022-10-05T00:12:26.531Z,2.88
2022-10-05T00:15:00.354Z,2.81
2022-10-05T00:17:30.156Z,2.64
2022-10-05T00:19:57.437Z,2.79
2022-10-05T00:22:31.408Z,3.05
2022-10-05T00:25:01.083Z,2.93
2022-10-05T00:27:37.277Z,3.01
2022-10-05T00:30:16.779Z,3.00
2022-10-05T00:32:44.923Z,3.00
2022-10-05T00:35:13.400Z,2.80
2022-10-05T00:37:40.490Z,2.86
2022-10-05T00:40:46.091Z,2.86
2022-10-05T00:43:48.521Z,2.88
2022-10-05T00:46:30.746Z,2.65
2022-10-05T00:49:21.686Z,3.02
2022-10-05T00:52:10.497Z,2.80
2022-10-05T00:54:48.038Z,2.81
2022-10-05T00:57:48.054Z,2.93
2022-10-05T01:00:24.251Z,3.04
2022-10-05T01:03:25.554Z,2.90
2022-10-05T01:06:24.180Z,2.93
2022-10-05T01:09:01.715Z,3.05
2022-10-05T01:11:43.015Z,2.83
2022-10-05T01:14:36.596Z,2.95
2022-10-05T01:17:16.671Z,2.63
2022-10-05T01:20:27.142Z,2.78
2022-10-05T01:23:37.955Z,3.12
2022-10-05T01:26:07.285Z,2.92
2022-10-05T01:28:58.743Z,2.87
2022-10-05T01:31:59.373Z,3.04
2022-10-05T01:34:29.183Z,2.85
2022-10-05T01:37:29.226Z,2.85
2022-10-05T01:40:12.084Z,3.09
2022-10-05T01:42:44.566Z,2.96
2022-10-05T01:45:24.764Z,3.08
2022-10-05T01:48:17.495Z,3.09
2022-10-05T01:51:03.650Z,3.00
2022-10-05T01:53:46.068Z,2.94
2022-10-05T01:56:21.453Z,2.92
2022-10-05T01:59:27.910Z,3.01
2022-10-05T02:02:01.720Z,3.00
2022-10-05T02:05:01.015Z,2.83
2022-10-05T02:07:46.531Z,2.90
2022-10-05T02:10:25.813Z,2.83
2022-10-05T02:13:12.695Z,2.90
2022-10-05T02:15:46.518Z,2.98
2022-10-05T02:18:23.247Z,2.97
2022-10-05T02:20:55.361Z,2.81
2022-10-05T02:23:26.977Z,2.96
2022-10-05T02:25:58.255Z,2.80
2022-10-05T02:28:42.521Z,2.69
2022-10-05T02:31:36.182Z,3.00
2022-10-05T02:34:31.574Z,3.06
2022-10-05T02:37:20.355Z,2.97
2022-10-05T02:40:01.782Z,2.99
2022-10-05T02:42:35.628Z,2.94
2022-10-05T02:45:36.204Z,3.08
2022-10-05T02:48:15.057Z,2.91
2022-10-05T02:50:50.730Z,3.05
2022-10-05T02:53:32.494Z,3.07
2022-10-05T02:56:17.692Z,3.15
2022-10-05T02:59:02.216Z,2.89
2022-10-05T03:01:52.527Z,2.91
2022-10-05T03:04:37.889Z,2.86
2022-10-05T03:07:18.454Z,2.83
2022-10-05T03:10:02.633Z,2.86
2022-10-05T03:12:56.842Z,3.05
2022-10-05T03:16:05.617Z,3.13
2022-10-05T03:18:56.179Z,3.15
2022-10-05T03:21:48.370Z,2.81
2022-10-05T03:24:39.327Z,2.84
2022-10-05T03:27:27.733Z,3.00
2022-10-05T03:30:04.898Z,2.94
2022-10-05T03:32:54.604Z,2.85
2022-10-05T03:35:36.395Z,2.87
2022-10-05T03:38:24.178Z,3.06
2022-10-05T03:41:14.382Z,2.77
2022-10-05T03:43:59.688Z,3.13
2022-10-05T03:46:35.968Z,3.19
2022-10-05T03:49:20.754Z,2.90
2022-10-05T03:51:56.133Z,2.86
2022-10-05T03:54:28.351Z,2.92
2022-10-05T03:57:01.851Z,2.91
2022-10-05T03:59:41.649Z,2.93
2022-10-05T04:02:40.142Z,2.90
2022-10-05T04:05:09.680Z,2.90
2022-10-05T04:07:48.364Z,3.19
2022-10-05T04:10:26.175Z,3.14
2022-10-05T04:13:05.938Z,3.21
2022-10-05T04:15:43.029Z,3.24
2022-10-05T04:18:35.892Z,3.30
2022-10-05T04:21:23.360Z,3.15
2022-10-05T04:23:59.596Z,3.70
2022-10-05T04:26:52.105Z,4.02
2022-10-05T04:29:38.068Z,3.95
2022-10-05T04:32:13.482Z,3.79
2022-10-05T04:35:03.482Z,3.93
2022-10-05T04:37:46.250Z,3.58
2022-10-05T04:40:36.164Z,3.55
2022-10-05T04:43:30.348Z,3.34
2022-10-05T04:46:25.732Z,3.47
2022-10-05T04:49:23.104Z,3.27
2022-10-05T04:52:26.802Z,3.15
2022-10-05T04:55:14.869Z,2.92
2022-10-05T04:58:16.607Z,2.81
2022-10-05T05:01:12.593Z,2.93
2022-10-05T05:03:54.104Z,2.94
2022-10-05T05:06:32.662Z,2.93
2022-10-05T05:09:17.643Z,3.00
2022-10-05T05:12:18.172Z,2.93
2022-10-05T05:14:53.099Z,2.83
2022-10-05T05:17:25.695Z,2.88
2022-10-05T05:20:26.025Z,2.80
2022-10-05T05:23:18.349Z,2.66
2022-10-05T05:26:05.836Z,2.69
2022-10-05T05:29:03.073Z,2.64
2022-10-05T05:31:55.948Z,2.68
2022-10-05T05:34:28.434Z,2.53
2022-10-05T05:37:30.401Z,2.49
2022-10-05T05:40:06.191Z,2.45
2022-10-05T05:42:45.037Z,2.68
2022-10-05T05:45:22.963Z,2.79
2022-10-05T05:47:53.961Z,2.65
2022-10-05T05:50:47.633Z,2.69
2022-10-05T05:53:39.369Z,2.64
2022-10-05T05:56:26.796Z,2.67
2022-10-05T05:59:16.545Z,2.70
2022-10-05T06:01:56.727Z,2.65
2022-10-05T06:04:38.362Z,2.64
2022-10-05T06:07:06.918Z,2.97
2022-10-05T06:09:47.287Z,3.03
2022-10-05T06:12:24.263Z,2.82
2022-10-05T06:15:01.715Z,3.11
2022-10-05T06:17:31.899Z,3.16
2022-10-05T06:20:05.511Z,3.30
2022-10-05T06:22:46.201Z,3.01
2022-10-05T06:25:12.782Z,3.50
2022-10-05T06:28:11.087Z,2.76
2022-10-05T06:31:12.392Z,2.87
2022-10-05T06:33:48.160Z,3.21
2022-10-05T06:36:27.002Z,3.16
2022-10-05T06:39:22.824Z,3.01
2022-10-05T06:42:10.560Z,3.01
2022-10-05T06:44:48.859Z,2.98
2022-10-05T06:47:36.755Z,2.96
2022-10-05T06:50:15.500Z,2.82
2022-10-05T06:53:08.054Z,2.50
2022-10-05T06:55:45.521Z,2.74
2022-10-05T06:58:36.972Z,2.84
2022-10-05T07:01:14.513Z,2.77
2022-10-05T07:04:00.151Z,2.88
2022-10-05T07:06:55.036Z,2.76
2022-10-05T07:09:42.417Z,4.41
2022-10-05T07:12:59.529Z,4.26
2022-10-05T07:15:51.307Z,2.88
2022-10-05T07:18:32.797Z,2.88
2022-10-05T07:21:24.150Z,3.00
2022-10-05T07:24:28.259Z,2.66
2022-10-05T07:27:06.712Z,3.44
2022-10-05T07:29:42.513Z,3.32
2022-10-05T07:32:15.004Z,2.84
2022-10-05T07:35:18.853Z,3.31
2022-10-05T07:37:51.677Z,3.06
2022-10-05T07:40:29.056Z,2.82
2022-10-05T07:43:40.153Z,2.94
2022-10-05T07:46:26.678Z,2.92
2022-10-05T07:49:26.041Z,2.77
2022-10-05T07:52:05.441Z,2.96
2022-10-05T07:54:46.434Z,2.80
2022-10-05T07:57:15.798Z,2.73
2022-10-05T08:00:00.300Z,2.74
2022-10-05T08:02:37.634Z,2.80
2022-10-05T08:05:26.146Z,2.64
2022-10-05T08:08:26.642Z,2.77
2022-10-05T08:11:04.969Z,2.90
2022-10-05T08:13:38.969Z,3.00
2022-10-05T08:16:11.560Z,2.89
2022-10-05T08:19:01.767Z,2.90
2022-10-05T08:21:38.441Z,3.18
2022-10-05T08:24:46.037Z,3.57
2022-10-05T08:27:23.960Z,3.54
2022-10-05T08:30:05.721Z,3.29
2022-10-05T08:33:02.823Z,2.88
2022-10-05T08:35:37.990Z,2.89
2022-10-05T08:38:14.789Z,2.69
2022-10-05T08:40:57.919Z,2.81
2022-10-05T08:44:18.875Z,2.58
2022-10-05T08:47:07.367Z,2.65
2022-10-05T08:49:59.583Z,2.79
2022-10-05T08:52:30.014Z,2.86
2022-10-05T08:55:21.752Z,2.76
2022-10-05T08:58:03.488Z,2.79
2022-10-05T09:00:55.489Z,2.85
2022-10-05T09:03:42.332Z,3.13
2022-10-05T09:06:30.031Z,2.80
2022-10-05T09:08:59.869Z,3.08
2022-10-05T09:11:32.592Z,3.20
2022-10-05T09:14:15.964Z,3.93
2022-10-05T09:17:11.792Z,4.07
2022-10-05T09:19:51.538Z,4.07
2022-10-05T09:22:40.065Z,3.91
2022-10-05T09:25:30.268Z,3.93
2022-10-05T09:28:23.007Z,3.88
2022-10-05T09:31:04.899Z,4.03
2022-10-05T09:34:08.893Z,3.82
2022-10-05T09:36:47.904Z,4.20
2022-10-05T09:39:39.212Z,4.09
2022-10-05T09:42:25.363Z,4.26
2022-10-05T09:45:14.757Z,3.85
2022-10-05T09:48:09.575Z,3.93
2022-10-05T09:51:09.388Z,4.10
2022-10-05T09:53:50.317Z,3.89
2022-10-05T09:56:48.035Z,3.71
2022-10-05T09:59:39.794Z,3.66
2022-10-05T10:02:35.761Z,3.56
2022-10-05T10:05:11.468Z,3.13
2022-10-05T10:07:47.847Z,3.02
2022-10-05T10:10:24.431Z,2.94
2022-10-05T10:13:23.477Z,3.07
2022-10-05T10:16:26.049Z,2.95
2022-10-05T10:19:17.387Z,2.82
2022-10-05T10:22:15.564Z,2.91
2022-10-05T10:25:19.646Z,3.24
2022-10-05T10:28:17.392Z,3.17
2022-10-05T10:30:43.999Z,3.01
2022-10-05T10:33:30.835Z,3.03
2022-10-05T10:36:20.058Z,3.00
2022-10-05T10:39:10.108Z,3.02
2022-10-05T10:41:39.409Z,3.15
2022-10-05T10:44:40.787Z,3.08
2022-10-05T10:47:38.340Z,3.10
2022-10-05T10:50:39.224Z,3.33
2022-10-05T10:53:08.428Z,2.97
2022-10-05T10:55:37.974Z,3.05
2022-10-05T10:58:26.675Z,3.06
2022-10-05T11:00:56.192Z,3.07
2022-10-05T11:03:53.669Z,3.03
2022-10-05T11:06:26.279Z,3.36
2022-10-05T11:08:52.788Z,3.08
2022-10-05T11:12:10.610Z,2.89
2022-10-05T11:15:01.393Z,3.13
2022-10-05T11:17:50.630Z,3.00
2022-10-05T11:20:51.376Z,3.16
2022-10-05T11:23:23.573Z,3.13
2022-10-05T11:25:56.285Z,2.90
2022-10-05T11:28:42.391Z,3.14
2022-10-05T11:31:24.162Z,3.20
2022-10-05T11:34:35.129Z,3.28
2022-10-05T11:37:29.521Z,3.14
2022-10-05T11:40:25.056Z,3.19
2022-10-05T11:43:23.812Z,3.29
2022-10-05T11:45:50.355Z,3.26
2022-10-05T11:48:28.808Z,3.26
2022-10-05T11:51:27.902Z,3.45
2022-10-05T11:54:04.077Z,3.44
2022-10-05T11:56:41.738Z,3.45
2022-10-05T11:59:38.737Z,3.31
2022-10-05T12:02:18.660Z,3.32
2022-10-05T12:04:57.178Z,3.50
2022-10-05T12:07:38.912Z,3.52
2022-10-05T12:10:26.865Z,3.34
2022-10-05T12:13:18.164Z,3.25
2022-10-05T12:15:51.067Z,3.50
2022-10-05T12:18:44.220Z,3.59
2022-10-05T12:21:28.845Z,3.71
2022-10-05T12:24:26.646Z,3.69
2022-10-05T12:27:07.836Z,3.93
2022-10-05T12:30:02.126Z,3.94
2022-10-05T12:32:58.142Z,3.82
2022-10-05T12:35:48.220Z,3.71
2022-10-05T12:38:30.600Z,4.02
2022-10-05T12:41:22.323Z,4.08
2022-10-05T12:44:00.871Z,3.49
2022-10-05T12:46:34.528Z,3.93
2022-10-05T12:49:47.034Z,3.90
2022-10-05T12:52:58.896Z,3.66
2022-10-05T12:55:31.367Z,3.99
2022-10-05T12:58:17.884Z,3.61
2022-10-05T13:01:06.265Z,3.40
2022-10-05T13:03:39.812Z,3.40
2022-10-05T13:06:12.671Z,3.61
2022-10-05T13:09:13.424Z,3.58
2022-10-05T13:11:51.273Z,3.59
2022-10-05T13:14:23.564Z,3.63
2022-10-05T13:17:17.266Z,3.23
2022-10-05T13:20:03.224Z,3.17
2022-10-05T13:23:10.167Z,3.23
2022-10-05T13:25:50.506Z,3.66
2022-10-05T13:28:26.102Z,3.18
2022-10-05T13:31:11.522Z,3.25
2022-10-05T13:34:08.114Z,3.03
2022-10-05T13:36:34.662Z,3.06
2022-10-05T13:39:19.483Z,2.73
2022-10-05T13:42:12.499Z,2.95
2022-10-05T13:44:42.142Z,2.91
2022-10-05T13:47:36.586Z,2.85
2022-10-05T13:50:18.879Z,2.67
2022-10-05T13:52:54.552Z,2.84
2022-10-05T13:55:53.682Z,2.64
2022-10-05T13:58:45.088Z,2.63
2022-10-05T14:01:16.443Z,2.70
2022-10-05T14:04:04.966Z,2.68
2022-10-05T14:06:37.617Z,2.59
2022-10-05T14:09:04.768Z,2.60
2022-10-05T14:11:34.963Z,2.48
2022-10-05T14:14:16.887Z,2.43
2022-10-05T14:16:53.266Z,2.58
2022-10-05T14:19:30.768Z,2.55
2022-10-05T14:22:10.861Z,2.44
2022-10-05T14:24:49.813Z,2.48
2022-10-05T14:27:22.773Z,2.31
2022-10-05T14:30:19.657Z,2.69
2022-10-05T14:32:52.983Z,2.62
2022-10-05T14:35:20.838Z,2.78
2022-10-05T14:37:56.438Z,2.74
2022-10-05T14:40:26.303Z,2.46
2022-10-05T14:42:53.946Z,2.46
2022-10-05T14:45:26.426Z,2.49
2022-10-05T14:48:01.070Z,2.36
2022-10-05T14:50:31.765Z,2.53
2022-10-05T14:53:25.018Z,2.45
2022-10-05T14:56:10.795Z,2.40
2022-10-05T14:58:48.287Z,2.31
2022-10-05T15:01:35.463Z,2.44
2022-10-05T15:04:37.638Z,2.59
2022-10-05T15:07:20.494Z,2.38
2022-10-05T15:10:11.726Z,2.56
2022-10-05T15:12:46.036Z,2.75
2022-10-05T15:15:35.930Z,2.57
2022-10-05T15:18:58.527Z,2.54
2022-10-05T15:21:59.489Z,2.49
2022-10-05T15:24:52.428Z,2.35
2022-10-05T15:27:38.896Z,2.48
2022-10-05T15:30:16.334Z,2.69
2022-10-05T15:32:58.449Z,2.75
2022-10-05T15:35:30.996Z,2.73
2022-10-05T15:38:19.278Z,2.70
2022-10-05T15:40:55.443Z,2.71
2022-10-05T15:43:23.581Z,2.79
2022-10-05T15:46:04.661Z,2.48
2022-10-05T15:48:54.386Z,2.89
2022-10-05T15:51:40.015Z,2.85
2022-10-05T15:54:12.178Z,2.94
2022-10-05T15:56:47.355Z,2.90
2022-10-05T15:59:55.570Z,2.79
2022-10-05T16:03:14.717Z,2.78
2022-10-05T16:05:48.897Z,2.72
2022-10-05T16:08:27.326Z,2.72
2022-10-05T16:10:55.294Z,2.91
2022-10-05T16:13:45.485Z,2.68
2022-10-05T16:16:25.689Z,2.96
2022-10-05T16:19:05.805Z,2.62
2022-10-05T16:22:01.572Z,2.78
2022-10-05T16:24:55.620Z,2.78
2022-10-05T16:27:51.148Z,2.77
2022-10-05T16:30:22.274Z,3.04
2022-10-05T16:33:10.921Z,3.40
2022-10-05T16:35:47.401Z,3.15
2022-10-05T16:38:34.716Z,3.13
2022-10-05T16:41:28.664Z,3.42
2022-10-05T16:44:06.843Z,3.15
2022-10-05T16:46:49.145Z,3.34
2022-10-05T16:49:27.843Z,3.30
2022-10-05T16:51:59.922Z,3.56
2022-10-05T16:54:38.369Z,3.71
2022-10-05T16:57:19.977Z,3.51
2022-10-05T17:00:14.898Z,3.37
2022-10-05T17:03:24.094Z,4.14
2022-10-05T17:06:35.179Z,3.44
2022-10-05T17:09:15.726Z,3.32
2022-10-05T17:12:21.607Z,3.24
2022-10-05T17:15:06.424Z,3.06
2022-10-05T17:17:49.636Z,3.48
2022-10-05T17:20:22.313Z,3.12
2022-10-05T17:23:16.315Z,3.13
2022-10-05T17:25:54.947Z,3.00
2022-10-05T17:28:36.514Z,3.32
2022-10-05T17:31:03.154Z,3.62
2022-10-05T17:33:31.486Z,4.25
2022-10-05T17:36:01.084Z,3.92
2022-10-05T17:38:30.450Z,3.45
2022-10-05T17:40:59.991Z,3.43
2022-10-05T17:43:31.947Z,3.75
2022-10-05T17:46:01.252Z,3.60
2022-10-05T17:48:48.863Z,3.51
2022-10-05T17:51:29.685Z,3.44
2022-10-05T17:53:56.359Z,3.58
2022-10-05T17:56:23.781Z,3.43
2022-10-05T17:58:50.283Z,3.38
2022-10-05T18:01:38.974Z,3.60
2022-10-05T18:04:26.989Z,3.52
2022-10-05T18:06:56.570Z,3.86
2022-10-05T18:09:23.138Z,4.23
2022-10-05T18:12:08.368Z,3.73
2022-10-05T18:15:07.173Z,3.81
2022-10-05T18:17:39.461Z,3.67
2022-10-05T18:20:12.245Z,4.08
2022-10-05T18:22:39.245Z,4.05
2022-10-05T18:25:23.090Z,4.36
2022-10-05T18:28:15.718Z,4.20
2022-10-05T18:30:56.387Z,4.01
2022-10-05T18:33:31.997Z,5.68
2022-10-05T18:36:27.361Z,4.20
2022-10-05T18:39:07.934Z,4.37
2022-10-05T18:41:56.814Z,4.17
2022-10-05T18:44:32.907Z,4.00
2022-10-05T18:47:11.921Z,4.45
2022-10-05T18:49:57.201Z,4.77
2022-10-05T18:52:44.609Z,4.74
2022-10-05T18:55:36.249Z,4.44
2022-10-05T18:58:17.177Z,4.51
2022-10-05T19:01:01.954Z,4.59
2022-10-05T19:03:54.848Z,4.68
2022-10-05T19:06:37.833Z,4.89
2022-10-05T19:09:31.530Z,4.80
2022-10-05T19:12:07.178Z,5.61
2022-10-05T19:14:42.528Z,4.86
2022-10-05T19:17:26.234Z,4.92
2022-10-05T19:20:05.159Z,5.01
2022-10-05T19:22:58.415Z,5.18
2022-10-05T19:25:36.110Z,5.19
2022-10-05T19:28:21.027Z,5.10
2022-10-05T19:31:18.223Z,5.13
2022-10-05T19:33:47.798Z,5.20
2022-10-05T19:36:46.058Z,5.13
2022-10-05T19:39:37.182Z,5.17
2022-10-05T19:42:45.310Z,5.01
2022-10-05T19:45:31.876Z,5.25
2022-10-05T19:48:04.166Z,5.05
2022-10-05T19:50:33.873Z,5.19
2022-10-05T19:53:13.760Z,5.60
2022-10-05T19:55:45.505Z,5.15
2022-10-05T19:58:22.564Z,5.88
2022-10-05T20:00:55.294Z,5.46
2022-10-05T20:03:30.300Z,5.41
2022-10-05T20:06:02.384Z,5.53
2022-10-05T20:08:39.123Z,5.55
2022-10-05T20:11:18.182Z,6.03
2022-10-05T20:13:49.622Z,5.80
2022-10-05T20:16:17.389Z,5.47
2022-10-05T20:18:44.078Z,6.19
2022-10-05T20:21:44.211Z,6.68
2022-10-05T20:24:13.515Z,6.24
2022-10-05T20:26:49.395Z,6.47
2022-10-05T20:29:16.029Z,6.31
2022-10-05T20:31:42.664Z,6.82
2022-10-05T20:34:09.332Z,6.80
2022-10-05T20:36:35.910Z,6.49
2022-10-05T20:39:02.541Z,6.57
2022-10-05T20:41:29.749Z,6.81
2022-10-05T20:43:56.536Z,6.75
2022-10-05T20:46:23.189Z,7.08
2022-10-05T20:48:49.826Z,7.12
2022-10-05T20:51:16.603Z,7.27
2022-10-05T20:53:43.188Z,6.92
2022-10-05T20:56:10.178Z,7.00
2022-10-05T20:58:36.768Z,7.54
2022-10-05T21:01:03.660Z,7.44
2022-10-05T21:03:30.303Z,7.25
2022-10-05T21:05:56.922Z,7.60
2022-10-05T21:08:23.524Z,7.60
2022-10-05T21:10:50.205Z,7.57
2022-10-05T21:13:16.936Z,7.17
2022-10-05T21:15:43.614Z,7.59
2022-10-05T21:18:10.400Z,7.42
2022-10-05T21:20:37.102Z,7.63
2022-10-05T21:23:04.103Z,7.94
2022-10-05T21:25:30.785Z,7.94
2022-10-05T21:27:57.548Z,7.86
2022-10-05T21:30:24.185Z,7.85
2022-10-05T21:32:50.930Z,7.73
2022-10-05T21:35:18.046Z,7.57
2022-10-05T21:37:44.731Z,7.88
2022-10-05T21:40:11.358Z,7.80
2022-10-05T21:42:38.673Z,8.08
2022-10-05T21:45:05.961Z,8.13
2022-10-05T21:47:32.660Z,8.35
2022-10-05T21:50:01.051Z,8.15
2022-10-05T21:52:27.931Z,8.40
2022-10-05T21:54:54.588Z,8.33
2022-10-05T21:57:21.609Z,8.19
2022-10-05T21:59:51.559Z,8.55
2022-10-05T22:02:18.313Z,8.26
2022-10-05T22:04:44.960Z,8.31
2022-10-05T22:07:17.257Z,8.00
2022-10-05T22:09:48.608Z,8.05
2022-10-05T22:12:15.910Z,8.68
2022-10-05T22:14:42.494Z,8.75
2022-10-05T22:17:22.364Z,8.53
2022-10-05T22:19:49.948Z,8.88
2022-10-05T22:22:16.966Z,8.58
2022-10-05T22:24:43.545Z,8.82
2022-10-05T22:27:10.204Z,8.82
2022-10-05T22:29:37.292Z,8.82
2022-10-05T22:32:03.936Z,9.00
2022-10-05T22:34:30.583Z,8.85
2022-10-05T22:36:58.018Z,9.03
2022-10-05T22:39:24.632Z,9.16
2022-10-05T22:41:51.224Z,8.89
2022-10-05T22:44:18.008Z,8.78
2022-10-05T22:46:44.675Z,8.67
2022-10-05T22:49:11.242Z,8.83
2022-10-05T22:51:37.844Z,8.99
2022-10-05T22:54:04.652Z,8.86
2022-10-05T22:56:31.282Z,9.01
2022-10-05T22:58:57.883Z,8.37
2022-10-05T23:01:24.495Z,8.49
2022-10-05T23:03:51.074Z,9.04
2022-10-05T23:06:20.411Z,8.79
2022-10-05T23:08:47.421Z,8.64
2022-10-05T23:11:25.709Z,8.77
2022-10-05T23:13:54.679Z,8.67
2022-10-05T23:16:24.139Z,8.69
2022-10-05T23:18:53.144Z,8.96
2022-10-05T23:21:22.071Z,8.47
2022-10-05T23:23:49.417Z,8.95
2022-10-05T23:26:17.394Z,8.77
2022-10-05T23:28:44.734Z,8.68
2022-10-05T23:31:11.594Z,9.35
2022-10-05T23:33:38.206Z,9.39
2022-10-05T23:36:12.764Z,9.27
2022-10-05T23:38:39.684Z,9.03
2022-10-05T23:41:07.059Z,8.76
2022-10-05T23:43:33.868Z,8.71
2022-10-05T23:46:02.305Z,8.70
2022-10-05T23:48:29.306Z,8.78
2022-10-05T23:50:56.680Z,8.84
2022-10-05T23:53:24.448Z,8.88
2022-10-05T23:55:52.694Z,8.91
2022-10-05T23:58:20.593Z,8.63
